Time;durP1;ratioP1;P1;durP2;ratioP2;P2;SDS_P1;SDS_P2;PMS_P1;PMS_P2;Temp;Humidity;BMP_temperature;BMP_pressure;BME280_temperature;BME280_humidity;BME280_pressure;Samples;Min_cycle;Max_cycle;Signal;HPM_P1;HPM_P2
2022/08/06 00:01:32;;;;;;;0.00;0.00;;;15.10;70.60;;;;;;5028134;28;20461;-66
2022/08/06 00:03:57;;;;;;;0.00;0.00;;;15.00;70.70;;;;;;5032169;28;20041;-66
2022/08/06 00:06:23;;;;;;;0.00;0.00;;;15.00;70.80;;;;;;5030133;28;20124;-66
2022/08/06 00:08:48;;;;;;;0.00;0.00;;;14.90;70.80;;;;;;5032017;28;20521;-66
2022/08/06 00:11:14;;;;;;;0.05;0.05;;;14.90;70.70;;;;;;5031481;28;20076;-66
2022/08/06 00:13:40;;;;;;;0.03;0.03;;;14.90;71.20;;;;;;5032330;28;20045;-66
2022/08/06 00:16:05;;;;;;;0.00;0.00;;;14.80;71.10;;;;;;5031357;28;20128;-66
2022/08/06 00:18:31;;;;;;;0.03;0.03;;;14.90;71.10;;;;;;5030558;28;20041;-66
2022/08/06 00:20:57;;;;;;;1.75;0.68;;;14.80;71.60;;;;;;5031322;28;20568;-66
2022/08/06 00:23:23;;;;;;;0.00;0.00;;;14.90;71.40;;;;;;5032074;28;20037;-66
2022/08/06 00:25:48;;;;;;;0.08;0.08;;;14.80;71.30;;;;;;5031914;28;20125;-66
2022/08/06 00:28:14;;;;;;;0.00;0.00;;;14.80;71.20;;;;;;5031360;28;20060;-66
2022/08/06 00:30:39;;;;;;;0.00;0.00;;;14.80;71.00;;;;;;5031392;28;20040;-66
2022/08/06 00:33:05;;;;;;;0.00;0.00;;;14.90;71.10;;;;;;5031371;28;20041;-65
2022/08/06 00:35:30;;;;;;;0.00;0.00;;;14.90;71.20;;;;;;5031243;28;20037;-66
2022/08/06 00:37:56;;;;;;;0.00;0.00;;;14.80;71.50;;;;;;5030295;28;20140;-66
2022/08/06 00:40:22;;;;;;;0.00;0.00;;;14.80;71.60;;;;;;5031612;28;20049;-66
2022/08/06 00:42:49;;;;;;;0.10;0.10;;;14.80;71.80;;;;;;5031246;28;20125;-66
2022/08/06 00:45:15;;;;;;;0.08;0.08;;;14.80;71.80;;;;;;5029761;28;20150;-66
2022/08/06 00:47:40;;;;;;;0.00;0.00;;;14.80;72.10;;;;;;5031042;28;20049;-66
2022/08/06 00:50:06;;;;;;;0.00;0.00;;;14.80;72.30;;;;;;5030947;28;20127;-66
2022/08/06 00:52:32;;;;;;;0.00;0.00;;;14.80;72.10;;;;;;5030712;28;20049;-66
2022/08/06 00:54:58;;;;;;;0.00;0.00;;;14.80;72.10;;;;;;5027186;28;20038;-66
2022/08/06 00:57:23;;;;;;;0.00;0.00;;;14.80;71.90;;;;;;5027402;28;20122;-66
2022/08/06 00:59:49;;;;;;;0.00;0.00;;;14.80;72.10;;;;;;5030876;28;20045;-67
2022/08/06 01:02:14;;;;;;;0.00;0.00;;;14.80;71.90;;;;;;5030492;28;20490;-67
2022/08/06 01:04:40;;;;;;;0.00;0.00;;;14.80;71.90;;;;;;5030647;28;20084;-66
2022/08/06 01:07:05;;;;;;;0.00;0.00;;;14.80;72.70;;;;;;5031085;28;20048;-66
2022/08/06 01:09:31;;;;;;;0.00;0.00;;;14.80;72.80;;;;;;5030662;28;20038;-66
2022/08/06 01:11:56;;;;;;;0.00;0.00;;;14.80;72.60;;;;;;5030940;28;20038;-66
2022/08/06 01:14:22;;;;;;;0.00;0.00;;;14.80;72.50;;;;;;5030986;28;20510;-66
2022/08/06 01:16:56;;;;;;;0.00;0.00;;;14.80;72.30;;;;;;5031006;28;20048;-66
2022/08/06 01:19:22;;;;;;;0.03;0.03;;;14.80;72.50;;;;;;5012801;28;20060;-66
2022/08/06 01:22:14;;;;;;;0.00;0.00;;;14.80;72.40;;;;;;5029915;28;20037;-66
2022/08/06 01:24:45;;;;;;;0.00;0.00;;;14.90;72.50;;;;;;5028699;28;20045;-66
2022/08/06 01:27:18;;;;;;;;;;;14.80;72.60;;;;;;5028857;28;20054;-66
2022/08/06 01:29:50;;;;;;;0.10;0.10;;;14.80;72.70;;;;;;5029826;28;19925;-66
2022/08/06 01:32:18;;;;;;;;;;;14.80;72.70;;;;;;5030962;28;20053;-66
2022/08/06 01:34:50;;;;;;;0.00;0.00;;;14.90;72.80;;;;;;5030059;28;19924;-66
2022/08/06 01:37:41;;;;;;;0.00;0.00;;;14.90;72.90;;;;;;5030762;28;20438;-67
2022/08/06 01:40:14;;;;;;;0.00;0.00;;;14.80;73.30;;;;;;5030593;28;20091;-66
2022/08/06 01:42:42;;;;;;;0.00;0.00;;;14.80;73.40;;;;;;5045446;28;20448;-66
2022/08/06 01:45:13;;;;;;;0.00;0.00;;;14.80;73.10;;;;;;5030136;28;20057;-66
2022/08/06 01:47:42;;;;;;;0.00;0.00;;;14.80;73.00;;;;;;5030060;28;20124;-66
2022/08/06 01:50:09;;;;;;;0.00;0.00;;;14.80;73.00;;;;;;5012255;28;20050;-66
2022/08/06 01:52:41;;;;;;;0.00;0.00;;;14.80;73.30;;;;;;5029777;28;20038;-66
2022/08/06 01:55:10;;;;;;;0.00;0.00;;;14.80;73.30;;;;;;5029431;28;20129;-66
2022/08/06 01:57:38;;;;;;;0.00;0.00;;;14.80;73.20;;;;;;5029790;28;20042;-66
2022/08/06 02:00:05;;;;;;;0.00;0.00;;;14.80;73.30;;;;;;5029253;28;20041;-66
2022/08/06 02:02:33;;;;;;;0.00;0.00;;;14.80;73.30;;;;;;5030012;28;20061;-66
2022/08/06 02:05:01;;;;;;;0.00;0.00;;;14.80;73.60;;;;;;5029323;28;20056;-66
2022/08/06 02:07:33;;;;;;;0.00;0.00;;;14.80;73.80;;;;;;5029941;28;20091;-66
2022/08/06 02:10:00;;;;;;;0.10;0.10;;;14.70;73.90;;;;;;5028468;28;20443;-66
2022/08/06 02:12:27;;;;;;;0.00;0.00;;;14.70;73.70;;;;;;5029974;28;20132;-66
2022/08/06 02:15:00;;;;;;;0.00;0.00;;;14.60;73.70;;;;;;5028991;28;20489;-66
2022/08/06 02:17:30;;;;;;;0.00;0.00;;;14.60;73.70;;;;;;5030329;28;20053;-66
2022/08/06 02:20:00;;;;;;;0.00;0.00;;;14.60;73.90;;;;;;5011269;28;20091;-66
2022/08/06 02:22:29;;;;;;;0.00;0.00;;;14.60;73.70;;;;;;5029485;28;20055;-66
2022/08/06 02:24:57;;;;;;;0.10;0.10;;;14.60;73.60;;;;;;5029409;28;20048;-66
2022/08/06 02:27:24;;;;;;;0.00;0.00;;;14.60;73.80;;;;;;5028816;28;20463;-66
2022/08/06 02:29:53;;;;;;;0.00;0.00;;;14.60;73.70;;;;;;5029306;28;20103;-66
2022/08/06 02:32:19;;;;;;;0.08;0.08;;;14.60;73.70;;;;;;5029160;28;20044;-66
2022/08/06 02:34:45;;;;;;;0.10;0.10;;;14.60;73.70;;;;;;5028991;28;20125;-66
2022/08/06 02:37:17;;;;;;;0.08;0.08;;;14.60;73.90;;;;;;5029563;28;20053;-66
2022/08/06 02:39:49;;;;;;;0.00;0.00;;;14.60;74.60;;;;;;5011193;28;20091;-65
2022/08/06 02:42:19;;;;;;;0.00;0.00;;;14.60;74.20;;;;;;5022360;28;20056;-66
2022/08/06 02:45:26;;;;;;;0.00;0.00;;;14.60;74.10;;;;;;5011990;28;20129;-66
2022/08/06 02:48:03;;;;;;;0.00;0.00;;;14.60;74.20;;;;;;5017435;28;20057;-66
2022/08/06 02:50:35;;;;;;;0.00;0.00;;;14.60;74.20;;;;;;5027170;28;20395;-66
2022/08/06 02:53:08;;;;;;;0.00;0.00;;;14.60;74.10;;;;;;5028679;28;20084;-66
2022/08/06 02:55:38;;;;;;;0.00;0.00;;;14.60;74.70;;;;;;5028915;28;20107;-66
2022/08/06 02:58:22;;;;;;;0.00;0.00;;;14.60;74.60;;;;;;5028694;28;20128;-66
2022/08/06 03:00:52;;;;;;;0.00;0.00;;;14.60;74.80;;;;;;5010293;28;20120;-67
2022/08/06 03:03:22;;;;;;;0.00;0.00;;;14.60;75.00;;;;;;5028832;28;20045;-66
2022/08/06 03:05:49;;;;;;;0.00;0.00;;;14.60;75.00;;;;;;5028179;28;20440;-66
2022/08/06 03:08:20;;;;;;;0.00;0.00;;;14.60;75.30;;;;;;5028327;28;20130;-67
2022/08/06 03:10:47;;;;;;;0.00;0.00;;;14.60;75.30;;;;;;5028670;28;20041;-66
2022/08/06 03:13:13;;;;;;;0.10;0.10;;;14.60;75.40;;;;;;5025869;28;20052;-66
2022/08/06 03:15:41;;;;;;;0.00;0.00;;;14.70;75.50;;;;;;5028497;28;20135;-66
2022/08/06 03:18:08;;;;;;;0.00;0.00;;;14.70;75.70;;;;;;5029009;28;20045;-66
2022/08/06 03:20:35;;;;;;;0.00;0.00;;;14.70;75.70;;;;;;5028292;28;20041;-66
2022/08/06 03:23:07;;;;;;;0.10;0.10;;;14.60;75.10;;;;;;5027044;28;20064;-67
2022/08/06 03:25:34;;;;;;;0.00;0.00;;;14.60;75.70;;;;;;5027771;28;20512;-66
2022/08/06 03:28:00;;;;;;;0.00;0.00;;;14.60;75.70;;;;;;5028385;28;20051;-66
2022/08/06 03:30:26;;;;;;;0.00;0.00;;;14.60;75.90;;;;;;5028791;28;20096;-66
2022/08/06 03:32:52;;;;;;;0.00;0.00;;;14.60;75.70;;;;;;5028143;28;20045;-66
2022/08/06 03:35:19;;;;;;;0.00;0.00;;;14.60;75.50;;;;;;5027664;28;20552;-66
2022/08/06 03:37:46;;;;;;;0.00;0.00;;;14.70;75.80;;;;;;5027547;28;20552;-66
2022/08/06 03:40:14;;;;;;;0.00;0.00;;;14.70;75.60;;;;;;5010777;28;20060;-65
2022/08/06 03:42:40;;;;;;;0.00;0.00;;;14.80;75.50;;;;;;5028527;28;20403;-66
2022/08/06 03:45:06;;;;;;;0.00;0.00;;;14.80;75.40;;;;;;5028343;28;20053;-67
2022/08/06 03:47:47;;;;;;;0.00;0.00;;;14.80;75.30;;;;;;5028255;28;20045;-67
2022/08/06 03:50:18;;;;;;;0.00;0.00;;;14.80;75.80;;;;;;5028519;28;20384;-67
2022/08/06 03:52:50;;;;;;;0.00;0.00;;;14.80;75.60;;;;;;5026350;28;20053;-66
2022/08/06 03:55:19;;;;;;;;;;;14.80;75.70;;;;;;5029125;28;20514;-67
2022/08/06 03:57:48;;;;;;;0.00;0.00;;;14.80;76.10;;;;;;5027949;28;19949;-66
2022/08/06 04:00:16;;;;;;;0.00;0.00;;;14.80;76.10;;;;;;5028367;28;20110;-66
2022/08/06 04:02:50;;;;;;;0.00;0.00;;;14.80;76.10;;;;;;5024641;28;20045;-66
2022/08/06 04:05:24;;;;;;;0.00;0.00;;;14.80;75.70;;;;;;5028085;28;20072;-67
2022/08/06 04:07:58;;;;;;;0.00;0.00;;;14.80;75.50;;;;;;5027550;28;20045;-66
2022/08/06 04:10:30;;;;;;;0.00;0.00;;;14.80;75.70;;;;;;5028770;28;20041;-66
2022/08/06 04:12:56;;;;;;;0.00;0.00;;;14.80;75.90;;;;;;5028670;28;20091;-66
2022/08/06 04:15:23;;;;;;;0.00;0.00;;;14.80;75.90;;;;;;5027345;28;20464;-66
2022/08/06 04:17:51;;;;;;;0.00;0.00;;;14.80;75.80;;;;;;5026651;28;20494;-66
2022/08/06 04:20:20;;;;;;;0.00;0.00;;;14.80;75.90;;;;;;5028304;28;20042;-66
2022/08/06 04:22:45;;;;;;;0.00;0.00;;;14.90;75.90;;;;;;5028071;28;20045;-66
2022/08/06 04:25:12;;;;;;;0.00;0.00;;;14.80;75.80;;;;;;5028334;28;20049;-66
2022/08/06 04:27:40;;;;;;;0.00;0.00;;;14.80;75.80;;;;;;5028304;28;20111;-67
2022/08/06 04:30:07;;;;;;;0.00;0.00;;;14.80;76.40;;;;;;5031287;28;20664;-66
2022/08/06 04:32:33;;;;;;;0.00;0.00;;;14.80;77.00;;;;;;5030863;28;20179;-67
2022/08/06 04:35:04;;;;;;;0.00;0.00;;;14.80;76.70;;;;;;5032763;28;20041;-66
2022/08/06 04:37:30;;;;;;;0.00;0.00;;;14.80;77.00;;;;;;5013025;28;20045;-66
2022/08/06 04:39:57;;;;;;;0.00;0.00;;;14.90;76.80;;;;;;5030920;28;20037;-66
2022/08/06 04:42:23;;;;;;;0.00;0.00;;;14.80;76.80;;;;;;5031225;28;20049;-66
2022/08/06 04:44:49;;;;;;;0.00;0.00;;;14.80;77.00;;;;;;5030726;28;20038;-65
2022/08/06 04:47:16;;;;;;;0.00;0.00;;;14.80;76.90;;;;;;5030605;28;20049;-66
2022/08/06 04:49:42;;;;;;;0.00;0.00;;;14.80;76.70;;;;;;5031187;28;20053;-66
2022/08/06 04:52:07;;;;;;;0.00;0.00;;;14.80;76.70;;;;;;5030983;28;20060;-67
2022/08/06 04:54:33;;;;;;;0.00;0.00;;;14.80;76.70;;;;;;5030780;28;20041;-66
2022/08/06 04:56:58;;;;;;;0.00;0.00;;;14.90;76.70;;;;;;5031396;28;20045;-66
2022/08/06 04:59:24;;;;;;;0.00;0.00;;;14.90;76.90;;;;;;5030129;28;20052;-66
2022/08/06 05:01:50;;;;;;;0.00;0.00;;;14.90;76.80;;;;;;5030720;28;20116;-66
2022/08/06 05:04:15;;;;;;;0.00;0.00;;;14.90;76.80;;;;;;5031085;28;20442;-66
2022/08/06 05:06:44;;;;;;;0.00;0.00;;;14.90;76.80;;;;;;5030899;28;20041;-66
2022/08/06 05:09:14;;;;;;;0.00;0.00;;;15.00;76.90;;;;;;5030453;28;20125;-65
2022/08/06 05:11:45;;;;;;;0.00;0.00;;;15.10;76.90;;;;;;5028353;28;20045;-66
2022/08/06 05:14:18;;;;;;;0.00;0.00;;;15.10;76.80;;;;;;5030951;28;20049;-65
2022/08/06 05:16:48;;;;;;;0.00;0.00;;;15.10;77.00;;;;;;5030509;28;20135;-66
2022/08/06 05:19:23;;;;;;;0.00;0.00;;;15.10;77.90;;;;;;5023823;28;20510;-66
2022/08/06 05:21:50;;;;;;;0.00;0.00;;;15.10;77.90;;;;;;5023835;28;20421;-66
2022/08/06 05:24:16;;;;;;;0.00;0.00;;;15.10;78.10;;;;;;5029686;28;20038;-67
2022/08/06 05:26:42;;;;;;;0.00;0.00;;;15.10;77.80;;;;;;5023036;28;20040;-66
2022/08/06 05:29:08;;;;;;;0.00;0.00;;;15.10;77.80;;;;;;5030836;28;20056;-66
2022/08/06 05:31:36;;;;;;;0.00;0.00;;;15.10;77.60;;;;;;5012059;28;20045;-66
2022/08/06 05:34:05;;;;;;;0.00;0.00;;;15.20;77.90;;;;;;5026949;28;20796;-66
2022/08/06 05:36:30;;;;;;;0.00;0.00;;;15.20;77.90;;;;;;5026477;28;20049;-66
2022/08/06 05:38:56;;;;;;;0.00;0.00;;;15.30;77.70;;;;;;5028025;28;20049;-66
2022/08/06 05:41:22;;;;;;;0.00;0.00;;;15.30;77.90;;;;;;5012008;28;20062;-67
2022/08/06 05:43:47;;;;;;;0.00;0.00;;;15.40;78.00;;;;;;5028429;28;20067;-67
2022/08/06 05:46:21;;;;;;;0.00;0.00;;;15.50;77.60;;;;;;5028823;28;20049;-67
2022/08/06 05:49:07;;;;;;;0.00;0.00;;;15.40;77.70;;;;;;5028886;28;20418;-66
2022/08/06 05:51:51;;;;;;;0.00;0.00;;;15.40;77.50;;;;;;5029341;28;20049;-67
2022/08/06 05:54:42;;;;;;;0.00;0.00;;;15.30;77.30;;;;;;5029102;28;20049;-67
2022/08/06 05:57:22;;;;;;;0.00;0.00;;;15.30;76.90;;;;;;5024011;28;20056;-66
2022/08/06 06:00:00;;;;;;;0.00;0.00;;;15.30;76.60;;;;;;5029411;28;20044;-66
2022/08/06 06:02:28;;;;;;;0.00;0.00;;;15.40;76.50;;;;;;5028825;28;20093;-66
2022/08/06 06:04:54;;;;;;;0.00;0.00;;;15.40;76.30;;;;;;5029054;28;20589;-67
2022/08/06 06:07:21;;;;;;;0.00;0.00;;;15.50;76.20;;;;;;5028545;28;20586;-66
2022/08/06 06:09:46;;;;;;;0.00;0.00;;;15.50;76.20;;;;;;5027697;28;20456;-66
2022/08/06 06:12:12;;;;;;;0.00;0.00;;;15.50;76.30;;;;;;5028114;28;20054;-67
2022/08/06 06:14:43;;;;;;;0.00;0.00;;;15.60;76.10;;;;;;5028974;28;20071;-67
2022/08/06 06:17:39;;;;;;;0.00;0.00;;;15.60;75.90;;;;;;5027787;28;20426;-66
2022/08/06 06:20:30;;;;;;;0.00;0.00;;;15.70;75.60;;;;;;5027394;28;20437;-66
2022/08/06 06:23:20;;;;;;;0.00;0.00;;;15.80;75.50;;;;;;5029557;28;20044;-66
2022/08/06 06:26:21;;;;;;;0.00;0.00;;;15.80;76.00;;;;;;5009888;28;20053;-66
2022/08/06 06:29:17;;;;;;;0.00;0.00;;;15.90;75.80;;;;;;5019751;28;20057;-66
2022/08/06 06:32:08;;;;;;;0.00;0.00;;;16.10;77.90;;;;;;5029160;28;20061;-68
2022/08/06 06:34:57;;;;;;;0.00;0.00;;;16.60;78.40;;;;;;5029336;28;20037;-67
2022/08/06 06:37:39;;;;;;;0.00;0.00;;;17.40;76.50;;;;;;5010946;28;20057;-65
2022/08/06 06:40:34;;;;;;;0.00;0.00;;;18.10;73.50;;;;;;5027181;28;20101;-67
2022/08/06 06:43:37;;;;;;;0.00;0.00;;;18.10;69.40;;;;;;5028475;28;20148;-72
2022/08/06 06:46:19;;;;;;;0.00;0.00;;;18.20;70.90;;;;;;5027865;28;20050;-69
2022/08/06 06:48:58;;;;;;;0.00;0.00;;;18.50;69.50;;;;;;5027582;28;20050;-69
2022/08/06 06:51:27;;;;;;;0.00;0.00;;;18.40;69.10;;;;;;5026674;28;20054;-68
2022/08/06 06:53:54;;;;;;;0.00;0.00;;;18.20;68.90;;;;;;5028193;28;20045;-68
2022/08/06 06:56:24;;;;;;;0.00;0.00;;;18.00;69.20;;;;;;5027535;28;20053;-66
2022/08/06 06:58:55;;;;;;;0.00;0.00;;;18.00;70.10;;;;;;5027556;28;20037;-67
2022/08/06 07:01:22;;;;;;;0.00;0.00;;;17.90;70.40;;;;;;5025693;28;20530;-66
2022/08/06 07:03:49;;;;;;;0.00;0.00;;;17.80;70.50;;;;;;5029185;28;20559;-66
2022/08/06 07:06:16;;;;;;;0.00;0.00;;;17.80;71.20;;;;;;5028253;28;20037;-64
2022/08/06 07:08:46;;;;;;;0.00;0.00;;;17.60;71.60;;;;;;5028964;28;20049;-65
2022/08/06 07:11:19;;;;;;;0.30;0.30;;;17.60;71.80;;;;;;5028813;28;20049;-65
2022/08/06 07:13:46;;;;;;;0.00;0.00;;;17.60;72.70;;;;;;5025993;28;20048;-64
2022/08/06 07:16:15;;;;;;;0.00;0.00;;;17.50;71.80;;;;;;5028654;28;20537;-64
2022/08/06 07:18:43;;;;;;;0.10;0.10;;;17.50;72.10;;;;;;5039778;28;20088;-65
2022/08/06 07:21:12;;;;;;;0.00;0.00;;;17.50;72.10;;;;;;5029521;28;20053;-66
2022/08/06 07:23:38;;;;;;;0.00;0.00;;;17.50;70.70;;;;;;5026758;28;20041;-66
2022/08/06 07:26:05;;;;;;;0.00;0.00;;;17.50;71.40;;;;;;5020945;28;20046;-66
2022/08/06 07:28:31;;;;;;;0.00;0.00;;;17.50;70.90;;;;;;5021209;28;20061;-66
2022/08/06 07:30:58;;;;;;;0.00;0.00;;;17.50;71.10;;;;;;5026804;28;20041;-66
2022/08/06 07:33:24;;;;;;;0.63;0.63;;;17.60;71.10;;;;;;5018606;28;20659;-66
2022/08/06 07:35:51;;;;;;;0.00;0.00;;;17.70;70.40;;;;;;5015745;28;20128;-66
2022/08/06 07:38:20;;;;;;;0.00;0.00;;;17.80;70.40;;;;;;5023097;28;20128;-66
2022/08/06 07:40:53;;;;;;;0.00;0.00;;;17.80;70.40;;;;;;5022177;28;20050;-66
2022/08/06 07:43:29;;;;;;;0.00;0.00;;;17.90;68.80;;;;;;5016670;28;20043;-66
2022/08/06 07:45:58;;;;;;;0.00;0.00;;;17.90;66.90;;;;;;5026979;28;20064;-66
2022/08/06 07:48:31;;;;;;;0.00;0.00;;;18.00;67.10;;;;;;5026742;28;20187;-66
2022/08/06 07:50:59;;;;;;;0.00;0.00;;;17.90;65.60;;;;;;5024636;28;20044;-65
2022/08/06 07:53:26;;;;;;;0.00;0.00;;;17.90;66.20;;;;;;5026846;28;20075;-65
2022/08/06 07:55:52;;;;;;;0.00;0.00;;;17.90;66.40;;;;;;5035809;28;20049;-66
2022/08/06 07:58:19;;;;;;;0.00;0.00;;;18.00;64.60;;;;;;5027505;28;20041;-66
2022/08/06 08:00:47;;;;;;;0.00;0.00;;;18.00;65.90;;;;;;5027701;28;20054;-66
2022/08/06 08:08:46;;;;;;;0.47;0.28;;;18.20;64.50;;;;;;5017936;28;20387;-65
2022/08/06 08:11:16;;;;;;;0.00;0.00;;;18.30;64.10;;;;;;5032409;28;20081;-65
2022/08/06 08:13:42;;;;;;;2.55;0.35;;;18.20;62.50;;;;;;5032424;28;20080;-65
2022/08/06 08:16:11;;;;;;;0.00;0.00;;;18.30;63.20;;;;;;5030954;28;20041;-66
2022/08/06 08:18:39;;;;;;;0.00;0.00;;;18.40;64.50;;;;;;5029806;28;20041;-65
2022/08/06 08:21:06;;;;;;;0.03;0.03;;;18.40;64.60;;;;;;5030423;28;20081;-69
2022/08/06 08:23:33;;;;;;;0.00;0.00;;;18.50;65.10;;;;;;5032542;28;20091;-69
2022/08/06 08:26:00;;;;;;;0.80;0.73;;;18.50;64.30;;;;;;5031420;28;20088;-69
2022/08/06 08:28:26;;;;;;;0.00;0.00;;;18.70;65.30;;;;;;5031232;28;20156;-69
2022/08/06 08:30:52;;;;;;;0.00;0.00;;;18.90;65.00;;;;;;5030473;28;20046;-69
2022/08/06 08:33:20;;;;;;;0.00;0.00;;;19.30;63.60;;;;;;5029038;28;20418;-69
2022/08/06 08:35:47;;;;;;;0.00;0.00;;;19.50;60.50;;;;;;5022981;28;20044;-68
2022/08/06 08:38:13;;;;;;;0.00;0.00;;;19.50;59.90;;;;;;5017563;28;20045;-68
2022/08/06 08:40:40;;;;;;;0.00;0.00;;;19.60;59.90;;;;;;5020474;28;20049;-68
2022/08/06 08:43:10;;;;;;;0.00;0.00;;;19.50;59.20;;;;;;5023430;28;20081;-68
2022/08/06 08:45:36;;;;;;;0.00;0.00;;;19.50;59.40;;;;;;5024541;28;20053;-69
2022/08/06 08:48:04;;;;;;;0.00;0.00;;;19.50;58.80;;;;;;5021091;28;20061;-69
2022/08/06 08:50:30;;;;;;;0.00;0.00;;;19.50;60.50;;;;;;5025097;28;20509;-68
2022/08/06 08:53:03;;;;;;;0.00;0.00;;;19.50;59.70;;;;;;5013269;28;20085;-69
2022/08/06 08:55:29;;;;;;;0.00;0.00;;;19.60;61.10;;;;;;5028887;28;20037;-69
2022/08/06 08:57:56;;;;;;;0.00;0.00;;;19.60;59.00;;;;;;5025926;28;20057;-69
2022/08/06 09:00:22;;;;;;;0.00;0.00;;;19.50;57.20;;;;;;5030113;28;20047;-65
2022/08/06 09:02:48;;;;;;;0.00;0.00;;;19.40;56.30;;;;;;5030047;28;20132;-66
2022/08/06 09:05:15;;;;;;;0.00;0.00;;;19.30;57.60;;;;;;5029936;28;20076;-66
2022/08/06 09:07:42;;;;;;;0.00;0.00;;;19.30;58.20;;;;;;5029055;28;20089;-66
2022/08/06 09:10:09;;;;;;;0.00;0.00;;;19.10;57.70;;;;;;5029579;28;20642;-66
2022/08/06 09:12:35;;;;;;;0.10;0.10;;;18.90;58.80;;;;;;5030466;28;20506;-66
2022/08/06 09:15:01;;;;;;;0.00;0.00;;;18.80;59.30;;;;;;5025677;28;20057;-66
2022/08/06 09:17:29;;;;;;;0.00;0.00;;;18.70;59.40;;;;;;5029729;28;20088;-66
2022/08/06 09:19:55;;;;;;;0.00;0.00;;;18.60;60.20;;;;;;5031474;28;20140;-66
2022/08/06 09:22:21;;;;;;;0.00;0.00;;;18.80;60.30;;;;;;5029565;28;20161;-66
2022/08/06 09:24:46;;;;;;;0.00;0.00;;;18.80;59.80;;;;;;5030630;28;20041;-65
2022/08/06 09:27:14;;;;;;;0.00;0.00;;;18.80;59.70;;;;;;5029256;28;20095;-70
2022/08/06 09:29:49;;;;;;;0.00;0.00;;;18.70;56.80;;;;;;5028155;28;20465;-65
2022/08/06 09:32:36;;;;;;;0.10;0.10;;;18.70;54.80;;;;;;5029730;28;20053;-70
2022/08/06 09:35:01;;;;;;;0.10;0.10;;;18.80;56.30;;;;;;5012473;28;20506;-71
2022/08/06 09:37:29;;;;;;;0.00;0.00;;;18.90;56.80;;;;;;5028684;28;20093;-70
2022/08/06 09:39:54;;;;;;;0.00;0.00;;;19.00;57.20;;;;;;5029197;28;20767;-69
2022/08/06 09:42:56;;;;;;;0.00;0.00;;;18.90;57.50;;;;;;5029246;28;20140;-69
2022/08/06 09:45:23;;;;;;;0.00;0.00;;;18.70;59.10;;;;;;4968874;28;20061;-69
2022/08/06 09:47:59;;;;;;;0.00;0.00;;;18.80;59.40;;;;;;5013009;28;20054;-69
2022/08/06 09:50:38;;;;;;;0.00;0.00;;;18.90;58.10;;;;;;5024514;28;20042;-69
2022/08/06 09:53:04;;;;;;;0.00;0.00;;;19.20;57.20;;;;;;5028030;28;20057;-69
2022/08/06 09:55:31;;;;;;;0.00;0.00;;;19.40;56.80;;;;;;5028714;28;20045;-69
2022/08/06 09:57:56;;;;;;;0.00;0.00;;;19.60;57.10;;;;;;5021837;28;20043;-66
2022/08/06 10:00:30;;;;;;;0.00;0.00;;;19.50;56.90;;;;;;5029764;28;20041;-66
2022/08/06 10:03:03;;;;;;;0.00;0.00;;;19.50;57.20;;;;;;5029823;28;20053;-67
2022/08/06 10:05:29;;;;;;;0.00;0.00;;;19.30;58.50;;;;;;5023414;28;20111;-67
2022/08/06 10:08:10;;;;;;;0.00;0.00;;;19.10;59.80;;;;;;5010930;28;20042;-67
2022/08/06 10:10:50;;;;;;;0.32;0.32;;;19.10;60.10;;;;;;5022689;28;20107;-67
2022/08/06 10:13:19;;;;;;;0.00;0.00;;;19.00;59.90;;;;;;5010969;28;20081;-68
2022/08/06 10:15:46;;;;;;;0.00;0.00;;;18.80;59.10;;;;;;5024179;28;20087;-68
2022/08/06 10:18:46;;;;;;;0.20;0.20;;;18.80;58.50;;;;;;5029800;28;20128;-72
2022/08/06 10:21:23;;;;;;;0.00;0.00;;;18.60;58.30;;;;;;5030290;28;20037;-72
2022/08/06 10:23:51;;;;;;;0.00;0.00;;;18.70;59.20;;;;;;5030061;28;20624;-69
2022/08/06 10:26:19;;;;;;;0.00;0.00;;;18.80;58.70;;;;;;5029316;28;20041;-70
2022/08/06 10:28:48;;;;;;;0.00;0.00;;;18.70;59.10;;;;;;5029834;28;20183;-70
2022/08/06 10:31:15;;;;;;;0.00;0.00;;;18.80;59.00;;;;;;5029312;28;20041;-69
2022/08/06 10:33:43;;;;;;;1.67;1.55;;;18.90;58.80;;;;;;5020639;28;20176;-69
2022/08/06 10:36:12;;;;;;;0.00;0.00;;;19.00;58.70;;;;;;5010031;28;20115;-70
2022/08/06 10:38:42;;;;;;;0.00;0.00;;;19.20;58.60;;;;;;5010144;28;20038;-70
2022/08/06 10:41:09;;;;;;;0.00;0.00;;;19.30;58.60;;;;;;5010033;28;20116;-70
2022/08/06 10:43:38;;;;;;;0.03;0.03;;;19.40;57.50;;;;;;5028011;28;20055;-70
2022/08/06 10:46:08;;;;;;;0.15;0.15;;;19.60;57.90;;;;;;5027465;28;20056;-72
2022/08/06 10:48:36;;;;;;;0.00;0.00;;;19.70;57.60;;;;;;5009289;28;20050;-68
2022/08/06 10:51:03;;;;;;;0.00;0.00;;;19.80;56.40;;;;;;5020460;28;20449;-67
2022/08/06 10:53:31;;;;;;;0.00;0.00;;;19.80;54.70;;;;;;5027945;28;20072;-67
2022/08/06 10:56:01;;;;;;;0.00;0.00;;;20.00;55.60;;;;;;5028216;28;20169;-72
2022/08/06 10:58:29;;;;;;;0.00;0.00;;;20.10;54.70;;;;;;5029425;28;20131;-73
2022/08/06 11:00:56;;;;;;;0.00;0.00;;;20.10;54.90;;;;;;5030298;28;20042;-72
2022/08/06 11:04:02;;;;;;;0.00;0.00;;;20.30;55.30;;;;;;5018854;28;20155;-68
2022/08/06 11:06:50;;;;;;;0.00;0.00;;;20.50;55.30;;;;;;5008545;28;20052;-65
2022/08/06 11:09:29;;;;;;;0.00;0.00;;;20.40;54.30;;;;;;5008197;28;20056;-68
2022/08/06 11:12:19;;;;;;;0.00;0.00;;;20.20;55.10;;;;;;5009738;28;20045;-68
2022/08/06 11:14:45;;;;;;;0.00;0.00;;;20.20;55.20;;;;;;5024222;28;20053;-68
2022/08/06 11:17:12;;;;;;;0.00;0.00;;;20.30;55.60;;;;;;5029105;28;20037;-73
2022/08/06 11:19:48;;;;;;;0.10;0.10;;;20.20;55.40;;;;;;5028441;28;20056;-66
2022/08/06 11:22:35;;;;;;;0.00;0.00;;;20.20;55.20;;;;;;5028899;28;20057;-67
2022/08/06 11:25:08;;;;;;;0.00;0.00;;;20.10;54.50;;;;;;5028932;28;20052;-67
2022/08/06 11:27:53;;;;;;;0.00;0.00;;;20.10;55.90;;;;;;5027513;28;20049;-70
2022/08/06 11:30:19;;;;;;;0.00;0.00;;;20.30;55.20;;;;;;5023863;28;20046;-67
2022/08/06 11:32:51;;;;;;;0.00;0.00;;;20.30;53.30;;;;;;5024314;28;20058;-67
2022/08/06 11:35:44;;;;;;;;;;;20.40;53.90;;;;;;5023540;28;20049;-69
2022/08/06 11:38:12;;;;;;;0.00;0.00;;;20.50;52.30;;;;;;5024995;28;20008;-67
2022/08/06 11:41:01;;;;;;;0.00;0.00;;;20.60;51.50;;;;;;5029684;28;20042;-67
2022/08/06 11:43:58;;;;;;;0.00;0.00;;;20.60;53.50;;;;;;5031084;28;20085;-67
2022/08/06 11:46:26;;;;;;;2.75;1.25;;;20.60;52.40;;;;;;5007508;28;20129;-67
2022/08/06 11:49:03;;;;;;;0.00;0.00;;;20.50;51.90;;;;;;5031561;28;20054;-67
2022/08/06 11:51:49;;;;;;;0.00;0.00;;;20.40;53.00;;;;;;5031680;28;20056;-67
2022/08/06 11:54:24;;;;;;;0.30;0.22;;;20.30;53.00;;;;;;5030327;28;20397;-67
2022/08/06 11:57:02;;;;;;;0.00;0.00;;;20.20;53.00;;;;;;5031443;28;20129;-68
2022/08/06 11:59:30;;;;;;;0.00;0.00;;;20.30;53.80;;;;;;5031628;28;20057;-67
2022/08/06 12:01:56;;;;;;;0.00;0.00;;;20.20;50.90;;;;;;5031622;28;20049;-68
2022/08/06 12:04:34;;;;;;;0.00;0.00;;;20.30;52.50;;;;;;5030683;28;20046;-67
2022/08/06 12:07:18;;;;;;;0.00;0.00;;;20.40;52.90;;;;;;5031442;28;20065;-67
2022/08/06 12:09:45;;;;;;;0.00;0.00;;;20.50;52.00;;;;;;5030255;28;20042;-67
2022/08/06 12:12:23;;;;;;;0.15;0.15;;;20.60;52.30;;;;;;5031475;28;20724;-68
2022/08/06 12:14:50;;;;;;;0.00;0.00;;;20.60;49.90;;;;;;5031219;28;20056;-67
2022/08/06 12:17:17;;;;;;;0.00;0.00;;;20.50;49.50;;;;;;5029920;28;20053;-68
2022/08/06 12:19:44;;;;;;;0.00;0.00;;;20.60;51.00;;;;;;5031050;28;20075;-67
2022/08/06 12:22:13;;;;;;;0.10;0.10;;;20.80;51.40;;;;;;5028622;28;20050;-68
2022/08/06 12:24:39;;;;;;;0.00;0.00;;;20.90;51.20;;;;;;5018684;28;20052;-67
2022/08/06 12:27:09;;;;;;;0.20;0.20;;;20.90;52.40;;;;;;5031450;28;20049;-67
2022/08/06 12:29:35;;;;;;;0.10;0.10;;;21.00;52.30;;;;;;5028557;28;20116;-68
2022/08/06 12:32:00;;;;;;;1.75;1.10;;;21.00;50.40;;;;;;5031197;28;20152;-67
2022/08/06 12:34:27;;;;;;;0.00;0.00;;;21.00;50.40;;;;;;5030931;28;20042;-68
2022/08/06 12:36:53;;;;;;;0.00;0.00;;;21.10;50.50;;;;;;5030763;28;20041;-67
2022/08/06 12:39:18;;;;;;;0.10;0.10;;;21.10;50.60;;;;;;5030555;28;20099;-67
2022/08/06 12:41:44;;;;;;;0.55;0.30;;;21.20;50.40;;;;;;5028963;28;20375;-67
2022/08/06 12:44:11;;;;;;;0.08;0.08;;;21.30;49.90;;;;;;5017487;28;20510;-68
2022/08/06 12:46:36;;;;;;;0.00;0.00;;;21.30;49.30;;;;;;5025854;28;20128;-67
2022/08/06 12:49:02;;;;;;;0.00;0.00;;;21.20;49.70;;;;;;5030200;28;20136;-67
2022/08/06 12:51:28;;;;;;;7.32;1.35;;;21.20;50.70;;;;;;5030893;28;20739;-67
2022/08/06 12:53:57;;;;;;;0.00;0.00;;;21.10;48.70;;;;;;5026869;28;20137;-67
2022/08/06 12:56:24;;;;;;;0.00;0.00;;;21.30;49.60;;;;;;5013866;28;20053;-66
2022/08/06 12:58:52;;;;;;;0.40;0.40;;;21.30;49.40;;;;;;5017949;28;20074;-67
2022/08/06 13:01:21;;;;;;;1.95;0.75;;;21.40;48.70;;;;;;5021599;28;20490;-67
2022/08/06 13:03:49;;;;;;;0.28;0.28;;;21.60;49.50;;;;;;5023798;28;20041;-67
2022/08/06 13:06:17;;;;;;;0.65;0.65;;;21.60;47.50;;;;;;5024882;28;20052;-67
2022/08/06 13:08:47;;;;;;;0.00;0.00;;;21.50;47.10;;;;;;5018893;28;20176;-67
2022/08/06 13:11:13;;;;;;;0.00;0.00;;;21.50;47.60;;;;;;5029798;28;20498;-67